createdAt,value
2018-12-04T00:00:37.445Z,6.80
2018-12-04T00:03:25.654Z,6.70
2018-12-04T00:06:03.800Z,6.60
2018-12-04T00:11:52.245Z,6.50
2018-12-04T00:14:39.473Z,6.40
2018-12-04T00:17:25.288Z,6.50
2018-12-04T00:20:01.830Z,6.40
2018-12-04T00:25:35.383Z,6.50
2018-12-04T00:28:04.547Z,6.40
2018-12-04T00:33:49.715Z,6.50
2018-12-04T00:36:29.231Z,6.50
2018-12-04T00:39:16.308Z,6.50
2018-12-04T00:41:49.431Z,6.50
2018-12-04T00:44:30.894Z,6.50
2018-12-04T00:47:12.645Z,6.50
2018-12-04T00:50:01.579Z,6.50
2018-12-04T00:52:44.149Z,6.50
2018-12-04T00:55:28.047Z,6.50
2018-12-04T00:58:16.012Z,6.70
2018-12-04T01:00:55.172Z,6.70
2018-12-04T01:03:42.373Z,6.80
2018-12-04T01:06:28.122Z,6.80
2018-12-04T01:09:17.156Z,6.80
2018-12-04T01:11:54.405Z,6.80
2018-12-04T01:14:39.522Z,6.80
2018-12-04T01:17:27.485Z,6.80
2018-12-04T01:20:13.106Z,6.80
2018-12-04T01:22:50.443Z,6.80
2018-12-04T01:25:32.198Z,6.80
2018-12-04T01:28:22.229Z,6.80
2018-12-04T01:34:13.101Z,6.70
2018-12-04T01:37:04.733Z,6.70
2018-12-04T01:39:52.219Z,6.80
2018-12-04T01:45:39.070Z,6.80
2018-12-04T01:48:20.761Z,6.80
2018-12-04T01:50:56.076Z,6.80
2018-12-04T01:53:41.234Z,6.80
2018-12-04T01:59:21.557Z,6.70
2018-12-04T02:02:02.624Z,6.60
2018-12-04T02:04:41.972Z,6.60
2018-12-04T02:07:25.070Z,6.50
2018-12-04T02:09:54.344Z,6.40
2018-12-04T02:12:36.421Z,6.40
2018-12-04T02:15:15.575Z,6.40
2018-12-04T02:24:08.206Z,6.30
2018-12-04T02:26:40.909Z,6.30
2018-12-04T02:29:16.501Z,6.20
2018-12-04T02:31:58.336Z,6.30
2018-12-04T02:40:21.889Z,6.20
2018-12-04T02:43:00.974Z,6.10
2018-12-04T02:45:45.856Z,6.20
2018-12-04T02:48:25.479Z,6.20
2018-12-04T02:51:10.910Z,6.20
2018-12-04T02:53:41.982Z,6.20
2018-12-04T02:56:12.941Z,6.40
2018-12-04T02:58:49.148Z,6.30
2018-12-04T03:01:23.842Z,6.40
2018-12-04T03:03:53.753Z,6.50
2018-12-04T03:06:25.996Z,6.50
2018-12-04T03:08:59.392Z,6.50
2018-12-04T03:11:38.364Z,6.50
2018-12-04T03:14:25.906Z,6.40
2018-12-04T03:17:10.972Z,6.30
2018-12-04T03:20:00.694Z,6.20
2018-12-04T03:22:46.491Z,6.20
2018-12-04T03:28:35.492Z,6.00
2018-12-04T03:31:16.803Z,6.00
2018-12-04T03:34:06.125Z,6.00
2018-12-04T03:36:53.234Z,6.10
2018-12-04T03:39:32.811Z,6.10
2018-12-04T03:42:18.191Z,6.10
2018-12-04T03:45:06.041Z,6.10
2018-12-04T03:47:53.862Z,6.00
2018-12-04T03:50:31.565Z,5.90
2018-12-04T03:53:17.688Z,6.00
2018-12-04T03:56:01.376Z,6.10
2018-12-04T03:58:42.815Z,6.20
2018-12-04T04:04:28.130Z,6.30
2018-12-04T04:07:07.518Z,6.30
2018-12-04T04:09:52.885Z,6.20
2018-12-04T04:12:40.604Z,6.10
2018-12-04T04:15:20.113Z,5.90
2018-12-04T04:17:58.864Z,5.90
2018-12-04T04:20:40.477Z,5.80
2018-12-04T04:26:34.161Z,5.90
2018-12-04T04:29:16.024Z,5.80
2018-12-04T04:32:00.961Z,5.80
2018-12-04T04:34:36.748Z,5.70
2018-12-04T04:37:20.443Z,5.60
2018-12-04T04:40:11.817Z,5.50
2018-12-04T04:42:49.197Z,5.50
2018-12-04T04:45:32.357Z,5.40
2018-12-04T04:48:10.135Z,5.40
2018-12-04T04:50:55.128Z,5.30
2018-12-04T04:53:47.050Z,5.30
2018-12-04T04:56:32.197Z,5.30
2018-12-04T04:59:17.099Z,5.30
2018-12-04T05:04:50.320Z,5.20
2018-12-04T05:10:35.987Z,5.20
2018-12-04T05:13:21.534Z,5.20
2018-12-04T05:19:06.689Z,5.20
2018-12-04T05:21:57.743Z,5.20
2018-12-04T05:24:43.556Z,5.20
2018-12-04T05:27:32.688Z,5.20
2018-12-04T05:30:14.264Z,5.20
2018-12-04T05:32:53.161Z,5.20
2018-12-04T05:35:41.590Z,5.20
2018-12-04T05:44:16.942Z,5.20
2018-12-04T05:47:04.411Z,5.10
2018-12-04T05:49:48.372Z,5.10
2018-12-04T05:52:34.068Z,5.10
2018-12-04T05:55:13.651Z,5.10
2018-12-04T06:00:54.238Z,5.20
2018-12-04T06:06:49.832Z,5.20
2018-12-04T06:15:55.106Z,5.30
2018-12-04T06:18:41.064Z,5.30
2018-12-04T06:21:18.474Z,5.30
2018-12-04T06:24:01.329Z,5.20
2018-12-04T06:26:46.497Z,5.30
2018-12-04T06:29:26.541Z,5.30
2018-12-04T06:32:12.255Z,5.30
2018-12-04T06:34:57.962Z,5.30
2018-12-04T06:37:43.339Z,5.40
2018-12-04T06:43:12.405Z,5.40
2018-12-04T06:45:57.468Z,5.50
2018-12-04T06:48:37.258Z,5.50
2018-12-04T06:51:22.586Z,5.60
2018-12-04T06:54:05.178Z,5.60
2018-12-04T06:56:42.669Z,5.60
2018-12-04T06:59:32.249Z,5.40
2018-12-04T07:05:14.917Z,5.50
2018-12-04T07:07:54.354Z,5.40
2018-12-04T07:10:46.349Z,5.50
2018-12-04T07:16:36.341Z,5.40
2018-12-04T07:19:13.394Z,5.50
2018-12-04T07:21:52.062Z,5.40
2018-12-04T07:24:38.118Z,5.30
2018-12-04T07:27:19.286Z,5.20
2018-12-04T07:33:16.938Z,5.00
2018-12-04T07:35:56.371Z,5.00
2018-12-04T07:38:48.727Z,5.00
2018-12-04T07:41:26.231Z,5.00
2018-12-04T07:44:14.396Z,4.90
2018-12-04T07:47:07.146Z,4.90
2018-12-04T07:49:48.933Z,4.90
2018-12-04T07:55:38.650Z,4.90
2018-12-04T07:58:24.520Z,4.90
2018-12-04T08:00:55.726Z,4.90
2018-12-04T08:03:35.243Z,5.00
2018-12-04T08:06:23.864Z,5.10
2018-12-04T08:09:14.707Z,5.30
2018-12-04T08:12:06.047Z,5.30
2018-12-04T08:14:51.815Z,5.40
2018-12-04T08:17:37.609Z,5.30
2018-12-04T08:20:08.992Z,5.40
2018-12-04T08:23:00.455Z,5.60
2018-12-04T08:28:39.511Z,5.70
2018-12-04T08:31:24.800Z,5.60
2018-12-04T08:34:03.832Z,5.50
2018-12-04T08:36:42.649Z,5.50
2018-12-04T08:39:21.839Z,5.60
2018-12-04T08:42:04.205Z,5.60
2018-12-04T08:44:50.269Z,5.60
2018-12-04T08:47:30.697Z,5.50
2018-12-04T08:50:15.712Z,5.40
2018-12-04T08:53:02.978Z,5.40
2018-12-04T09:01:53.825Z,5.40
2018-12-04T09:04:33.650Z,5.40
2018-12-04T09:10:23.028Z,5.30
2018-12-04T09:13:02.485Z,5.30
2018-12-04T09:15:40.285Z,5.40
2018-12-04T09:18:25.652Z,5.40
2018-12-04T09:21:18.035Z,5.50
2018-12-04T09:23:59.452Z,5.50
2018-12-04T09:26:45.473Z,5.80
2018-12-04T09:29:33.105Z,6.00
2018-12-04T09:32:12.806Z,6.00
2018-12-04T09:34:54.289Z,6.20
2018-12-04T09:37:40.198Z,6.40
2018-12-04T09:40:19.544Z,6.40
2018-12-04T09:43:04.132Z,6.30
2018-12-04T09:45:50.785Z,6.20
2018-12-04T09:51:45.457Z,6.00
2018-12-04T09:54:35.087Z,5.90
2018-12-04T09:57:14.556Z,6.00
2018-12-04T10:00:01.951Z,6.30
2018-12-04T10:02:50.687Z,6.70
2018-12-04T10:05:29.893Z,7.00
2018-12-04T10:08:19.057Z,7.20
2018-12-04T10:10:55.775Z,7.30
2018-12-04T10:13:47.853Z,7.30
2018-12-04T10:16:37.253Z,7.20
2018-12-04T10:19:18.898Z,7.10
2018-12-04T10:21:58.483Z,7.10
2018-12-04T10:24:40.395Z,7.10
2018-12-04T10:27:28.384Z,7.00
2018-12-04T10:30:09.081Z,6.90
2018-12-04T10:32:51.291Z,6.80
2018-12-04T10:35:37.581Z,6.80
2018-12-04T10:41:13.922Z,6.70
2018-12-04T10:44:05.256Z,6.70
2018-12-04T10:46:49.105Z,6.70
2018-12-04T10:49:28.930Z,6.70
2018-12-04T10:52:17.297Z,6.60
2018-12-04T10:54:50.316Z,6.60
2018-12-04T10:57:39.692Z,6.60
2018-12-04T11:00:24.505Z,6.70
2018-12-04T11:03:09.336Z,6.70
2018-12-04T11:12:02.159Z,6.90
2018-12-04T11:14:41.212Z,6.80
2018-12-04T11:17:20.548Z,5.40
2018-12-04T11:20:04.400Z,4.60
2018-12-04T11:22:42.220Z,4.20
2018-12-04T11:25:27.504Z,4.00
2018-12-04T11:28:11.274Z,4.00
2018-12-04T11:30:57.185Z,4.00
2018-12-04T11:33:38.720Z,4.00
2018-12-04T11:36:29.630Z,3.90
2018-12-04T11:39:11.730Z,3.90
2018-12-04T11:42:00.071Z,3.90
2018-12-04T11:44:39.702Z,4.00
2018-12-04T11:50:18.568Z,4.20
2018-12-04T11:53:06.443Z,4.20
2018-12-04T11:55:53.423Z,4.30
2018-12-04T12:01:35.123Z,4.50
2018-12-04T12:07:20.714Z,4.60
2018-12-04T12:10:08.489Z,4.70
2018-12-04T12:12:53.924Z,4.70
2018-12-04T12:15:31.972Z,4.70
2018-12-04T12:21:18.605Z,4.70
2018-12-04T12:23:58.985Z,4.60
2018-12-04T12:29:54.620Z,4.80
2018-12-04T12:32:42.403Z,4.90
2018-12-04T12:35:19.721Z,5.00
2018-12-04T12:38:00.982Z,5.10
2018-12-04T12:40:43.917Z,5.20
2018-12-04T12:43:20.687Z,5.30
2018-12-04T12:45:58.484Z,5.30
2018-12-04T12:51:38.660Z,5.40
2018-12-04T12:57:35.513Z,5.60
2018-12-04T13:03:06.674Z,5.70
2018-12-04T13:05:55.908Z,5.80
2018-12-04T13:08:41.593Z,5.80
2018-12-04T13:11:18.920Z,5.90
2018-12-04T13:14:04.211Z,5.90
2018-12-04T13:16:46.112Z,6.00
2018-12-04T13:19:31.139Z,6.10
2018-12-04T13:22:16.125Z,6.20
2018-12-04T13:28:01.635Z,6.30
2018-12-04T13:30:49.456Z,6.40
2018-12-04T13:33:41.015Z,6.40
2018-12-04T13:36:26.576Z,6.50
2018-12-04T13:39:05.675Z,6.50
2018-12-04T13:41:42.374Z,6.50
2018-12-04T13:44:23.938Z,6.50
2018-12-04T13:47:14.012Z,6.60
2018-12-04T13:50:01.712Z,6.60
2018-12-04T13:52:47.368Z,6.60
2018-12-04T13:55:31.273Z,6.60
2018-12-04T13:58:17.430Z,6.60
2018-12-04T14:00:57.298Z,6.60
2018-12-04T14:06:31.881Z,6.70
2018-12-04T14:09:13.129Z,6.70
2018-12-04T14:11:52.340Z,6.70
2018-12-04T14:14:40.837Z,6.60
2018-12-04T14:23:19.369Z,6.50
2018-12-04T14:25:50.460Z,6.50
2018-12-04T14:28:39.963Z,6.40
2018-12-04T14:34:24.069Z,6.30
2018-12-04T14:37:15.999Z,6.30
2018-12-04T14:43:03.551Z,6.20
2018-12-04T14:52:06.249Z,6.20
2018-12-04T14:54:48.122Z,6.20
2018-12-04T14:57:35.788Z,6.10
2018-12-04T15:00:23.630Z,6.00
2018-12-04T15:03:09.149Z,6.00
2018-12-04T15:05:47.250Z,6.00
2018-12-04T15:11:38.229Z,5.90
2018-12-04T15:14:20.328Z,5.90
2018-12-04T15:16:55.375Z,5.80
2018-12-04T15:22:53.318Z,5.70
2018-12-04T15:28:50.501Z,5.70
2018-12-04T15:31:25.643Z,5.70
2018-12-04T15:34:13.204Z,5.70
2018-12-04T15:37:00.914Z,5.70
2018-12-04T15:39:46.563Z,5.70
2018-12-04T15:42:38.096Z,5.70
2018-12-04T15:45:19.980Z,5.90
2018-12-04T15:48:07.667Z,5.90
2018-12-04T15:50:47.053Z,5.90
2018-12-04T15:53:34.575Z,6.10
2018-12-04T15:56:09.849Z,6.10
2018-12-04T15:58:55.275Z,6.10
2018-12-04T16:08:02.505Z,5.90
2018-12-04T16:10:48.303Z,5.70
2018-12-04T16:13:27.862Z,5.60
2018-12-04T16:22:14.189Z,5.50
2018-12-04T16:24:52.078Z,5.40
2018-12-04T16:27:31.980Z,5.50
2018-12-04T16:30:21.705Z,5.50
2018-12-04T16:33:14.220Z,5.40
2018-12-04T16:35:55.725Z,5.40
2018-12-04T16:38:44.311Z,5.30
2018-12-04T16:41:31.747Z,5.30
2018-12-04T16:44:07.437Z,5.20
2018-12-04T16:46:48.664Z,5.10
2018-12-04T16:49:28.561Z,5.10
2018-12-04T16:55:10.199Z,5.00
2018-12-04T16:57:57.980Z,4.90
2018-12-04T17:03:35.181Z,4.90
2018-12-04T17:06:08.042Z,4.90
2018-12-04T17:08:57.635Z,4.90
2018-12-04T17:11:37.049Z,4.90
2018-12-04T17:23:18.743Z,4.80
2018-12-04T17:25:58.081Z,4.70
2018-12-04T17:31:30.513Z,4.70
2018-12-04T17:34:16.002Z,4.60
2018-12-04T17:37:03.963Z,4.60
2018-12-04T17:39:49.777Z,4.60
2018-12-04T17:45:30.111Z,4.50
2018-12-04T17:48:15.355Z,4.50
2018-12-04T17:50:52.205Z,4.50
2018-12-04T17:53:38.071Z,4.50
2018-12-04T17:56:25.159Z,4.50
2018-12-04T17:59:11.051Z,4.40
2018-12-04T18:01:53.039Z,4.40
2018-12-04T18:04:38.605Z,4.40
2018-12-04T18:10:25.909Z,4.40
2018-12-04T18:13:03.748Z,4.30
2018-12-04T18:15:45.576Z,4.30
2018-12-04T18:18:27.196Z,4.20
2018-12-04T18:21:13.967Z,4.20
2018-12-04T18:23:49.421Z,4.20
2018-12-04T18:26:26.475Z,4.20
2018-12-04T18:29:15.617Z,4.10
2018-12-04T18:31:52.894Z,4.10
2018-12-04T18:34:38.428Z,4.10
2018-12-04T18:37:18.333Z,4.00
2018-12-04T18:40:07.927Z,4.00
2018-12-04T18:42:53.726Z,4.00
2018-12-04T18:45:35.039Z,3.90
2018-12-04T18:48:12.688Z,3.90
2018-12-04T18:50:54.127Z,3.90
2018-12-04T18:53:37.947Z,3.90
2018-12-04T18:59:17.383Z,3.80
2018-12-04T19:04:56.335Z,3.80
2018-12-04T19:10:53.198Z,3.80
2018-12-04T19:13:43.071Z,3.80
2018-12-04T19:16:30.501Z,3.80
2018-12-04T19:19:14.842Z,3.80
2018-12-04T19:24:46.360Z,3.80
2018-12-04T19:27:22.438Z,3.80
2018-12-04T19:30:07.868Z,3.80
2018-12-04T19:32:41.081Z,3.80
2018-12-04T19:35:21.201Z,3.80
2018-12-04T19:38:02.653Z,3.80
2018-12-04T19:40:48.490Z,3.80
2018-12-04T19:46:33.067Z,3.80
2018-12-04T19:49:17.955Z,3.80
2018-12-04T19:52:06.072Z,3.70
2018-12-04T19:54:52.359Z,3.70
2018-12-04T19:57:38.412Z,3.70
2018-12-04T20:00:16.125Z,3.70
2018-12-04T20:02:52.132Z,3.70
2018-12-04T20:05:41.356Z,3.70
2018-12-04T20:14:21.185Z,3.60
2018-12-04T20:16:57.886Z,3.50
2018-12-04T20:19:32.837Z,3.50
2018-12-04T20:22:20.204Z,3.50
2018-12-04T20:25:06.024Z,3.50
2018-12-04T20:30:39.022Z,3.40
2018-12-04T20:33:24.426Z,3.30
2018-12-04T20:36:07.889Z,3.30
2018-12-04T20:38:55.060Z,3.30
2018-12-04T20:41:38.728Z,3.30
2018-12-04T20:44:21.828Z,3.30
2018-12-04T20:47:09.681Z,3.30
2018-12-04T20:49:46.973Z,3.20
2018-12-04T20:52:32.466Z,3.20
2018-12-04T20:58:11.707Z,3.20
2018-12-04T21:00:57.431Z,3.20
2018-12-04T21:03:36.837Z,3.20
2018-12-04T21:06:22.309Z,3.30
2018-12-04T21:09:06.028Z,3.30
2018-12-04T21:11:51.719Z,3.30
2018-12-04T21:17:50.171Z,3.40
2018-12-04T21:20:34.207Z,3.40
2018-12-04T21:23:19.559Z,3.40
2018-12-04T21:25:59.185Z,3.40
2018-12-04T21:28:48.977Z,3.40
2018-12-04T21:31:40.112Z,3.50
2018-12-04T21:34:31.779Z,3.60
2018-12-04T21:37:18.367Z,3.60
2018-12-04T21:40:07.091Z,3.80
2018-12-04T21:42:58.268Z,3.90
2018-12-04T21:45:42.689Z,3.90
2018-12-04T21:48:20.968Z,3.90
2018-12-04T21:51:09.101Z,3.90
2018-12-04T21:59:39.450Z,3.90
2018-12-04T22:02:20.415Z,3.90
2018-12-04T22:05:02.569Z,4.00
2018-12-04T22:14:10.500Z,3.90
2018-12-04T22:16:56.302Z,3.90
2018-12-04T22:22:31.084Z,4.00
2018-12-04T22:25:07.802Z,4.00
2018-12-04T22:27:45.665Z,4.00
2018-12-04T22:30:25.636Z,4.00
2018-12-04T22:33:13.583Z,4.00
2018-12-04T22:35:57.146Z,3.90
2018-12-04T22:38:42.870Z,3.90
2018-12-04T22:41:28.319Z,3.80
2018-12-04T22:44:03.860Z,3.80
2018-12-04T22:46:47.512Z,3.80
2018-12-04T22:49:26.961Z,3.80
2018-12-04T22:52:14.089Z,3.90
2018-12-04T22:55:01.261Z,3.80
2018-12-04T22:57:46.933Z,3.80
2018-12-04T23:03:44.244Z,3.70
2018-12-04T23:09:27.172Z,3.60
2018-12-04T23:12:14.143Z,3.70
2018-12-04T23:14:59.969Z,3.70
2018-12-04T23:17:39.456Z,3.70
2018-12-04T23:20:28.005Z,3.70
2018-12-04T23:23:09.244Z,3.70
2018-12-04T23:26:00.536Z,3.70
2018-12-04T23:28:48.118Z,3.70
2018-12-04T23:31:31.872Z,3.70
2018-12-04T23:37:21.069Z,3.60
2018-12-04T23:40:06.011Z,3.50
2018-12-04T23:42:49.873Z,3.40
2018-12-04T23:45:27.213Z,3.30
2018-12-04T23:48:12.467Z,3.30
2018-12-04T23:50:52.742Z,3.40
2018-12-04T23:53:36.173Z,3.50
2018-12-04T23:56:22.085Z,3.50
2018-12-04T23:59:07.964Z,3.60
